createdAt,value
2017-04-07T00:00:04.763Z,1014.8
2017-04-07T00:01:15.035Z,1014.81
2017-04-07T00:02:25.309Z,1014.76
2017-04-07T00:03:35.835Z,1014.82
2017-04-07T00:04:46.102Z,1014.77
2017-04-07T00:05:56.381Z,1014.77
2017-04-07T00:07:06.647Z,1014.78
2017-04-07T00:08:16.916Z,1014.79
2017-04-07T00:09:27.476Z,1014.73
2017-04-07T00:10:37.746Z,1014.77
2017-04-07T00:11:48.018Z,1014.74
2017-04-07T00:12:58.299Z,1014.75
2017-04-07T00:14:08.574Z,1014.78
2017-04-07T00:15:19.143Z,1014.75
2017-04-07T00:16:29.420Z,1014.77
2017-04-07T00:17:39.703Z,1014.72
2017-04-07T00:18:49.982Z,1014.73
2017-04-07T00:19:59.620Z,1014.72
2017-04-07T00:21:09.527Z,1014.64
2017-04-07T00:22:19.799Z,1014.67
2017-04-07T00:23:30.087Z,1014.64
2017-04-07T00:24:40.375Z,1014.7
2017-04-07T00:25:50.327Z,1014.61
2017-04-07T00:27:00.536Z,1014.64
2017-04-07T00:28:10.819Z,1014.65
2017-04-07T00:29:20.776Z,1014.66
2017-04-07T00:30:31.049Z,1014.63
2017-04-07T00:31:41.358Z,1014.61
2017-04-07T00:32:51.570Z,1014.6
2017-04-07T00:34:01.931Z,1014.59
2017-04-07T00:35:11.892Z,1014.63
2017-04-07T00:36:22.162Z,1014.58
2017-04-07T00:37:32.430Z,1014.63
2017-04-07T00:38:42.743Z,1014.6
2017-04-07T00:39:52.698Z,1014.6
2017-04-07T00:41:02.964Z,1014.57
2017-04-07T00:42:12.935Z,1014.58
2017-04-07T00:43:22.581Z,1014.57
2017-04-07T00:44:32.806Z,1014.54
2017-04-07T00:45:42.761Z,1014.51
2017-04-07T00:46:53.032Z,1014.44
2017-04-07T00:48:03.328Z,1014.43
2017-04-07T00:49:13.281Z,1014.41
2017-04-07T00:50:23.803Z,1014.38
2017-04-07T00:51:34.077Z,1014.35
2017-04-07T00:52:43.729Z,1014.34
2017-04-07T00:53:53.678Z,1014.32
2017-04-07T00:55:03.957Z,1014.35
2017-04-07T00:56:14.478Z,1014.32
2017-04-07T00:57:24.440Z,1014.35
2017-04-07T00:58:34.711Z,1014.31
2017-04-07T00:59:44.993Z,1014.31
2017-04-07T01:00:54.946Z,1014.28
2017-04-07T01:02:05.467Z,1014.3
2017-04-07T01:03:15.425Z,1014.23
2017-04-07T01:04:25.697Z,1014.14
2017-04-07T01:05:35.967Z,1014.1
2017-04-07T01:06:46.227Z,1014.1
2017-04-07T01:07:56.760Z,1014.09
2017-04-07T01:09:07.042Z,1014.06
2017-04-07T01:10:17.314Z,1014.06
2017-04-07T01:11:27.589Z,1014.04
2017-04-07T01:12:37.241Z,1014.05
2017-04-07T01:13:47.444Z,1013.99
2017-04-07T01:14:57.400Z,1013.93
2017-04-07T01:16:07.670Z,1013.94
2017-04-07T01:17:17.629Z,1013.95
2017-04-07T01:18:27.580Z,1013.92
2017-04-07T01:19:38.093Z,1013.9
2017-04-07T01:20:48.385Z,1013.85
2017-04-07T01:21:58.670Z,1013.89
2017-04-07T01:23:08.622Z,1013.81
2017-04-07T01:24:19.044Z,1013.81
2017-04-07T01:25:29.562Z,1013.81
2017-04-07T01:26:39.533Z,1013.83
2017-04-07T01:27:49.797Z,1013.79
2017-04-07T01:29:00.074Z,1013.79
2017-04-07T01:30:10.032Z,1013.81
2017-04-07T01:31:20.557Z,1013.77
2017-04-07T01:32:30.829Z,1013.72
2017-04-07T01:33:40.157Z,1013.73
2017-04-07T01:34:50.421Z,1013.66
2017-04-07T01:36:00.695Z,1013.73
2017-04-07T01:37:10.905Z,1013.64
2017-04-07T01:38:20.861Z,1013.61
2017-04-07T01:39:31.125Z,1013.62
2017-04-07T01:40:41.405Z,1013.6
2017-04-07T01:41:51.348Z,1013.54
2017-04-07T01:43:00.995Z,1013.54
2017-04-07T01:44:10.663Z,1013.44
2017-04-07T01:45:20.933Z,1013.44
2017-04-07T01:46:31.201Z,1013.42
2017-04-07T01:47:41.471Z,1013.45
2017-04-07T01:48:51.680Z,1013.44
2017-04-07T01:50:01.638Z,1013.45
2017-04-07T01:51:11.911Z,1013.48
2017-04-07T01:52:21.868Z,1013.47
2017-04-07T01:53:32.152Z,1013.49
2017-04-07T01:54:42.672Z,1013.51
2017-04-07T01:55:52.942Z,1013.52
2017-04-07T01:57:03.208Z,1013.34
2017-04-07T01:58:13.173Z,1013.5
2017-04-07T01:59:23.434Z,1013.49
2017-04-07T02:00:33.962Z,1013.45
2017-04-07T02:01:43.932Z,1013.47
2017-04-07T02:02:54.216Z,1013.44
2017-04-07T02:04:04.493Z,1013.5
2017-04-07T02:05:14.759Z,1013.44
2017-04-07T02:06:24.660Z,1013.42
2017-04-07T02:07:34.614Z,1013.36
2017-04-07T02:08:44.897Z,1013.36
2017-04-07T02:09:54.846Z,1013.45
2017-04-07T02:11:04.810Z,1013.39
2017-04-07T02:12:15.330Z,1013.32
2017-04-07T02:13:24.984Z,1013.3
2017-04-07T02:14:35.239Z,1013.32
2017-04-07T02:15:45.519Z,1013.36
2017-04-07T02:16:55.799Z,1013.35
2017-04-07T02:18:06.068Z,1013.31
2017-04-07T02:19:16.351Z,1013.31
2017-04-07T02:20:26.618Z,1013.27
2017-04-07T02:21:36.908Z,1013.29
2017-04-07T02:22:47.178Z,1013.26
2017-04-07T02:23:57.388Z,1013.27
2017-04-07T02:25:07.664Z,1013.26
2017-04-07T02:26:17.942Z,1013.28
2017-04-07T02:27:27.615Z,1013.23
2017-04-07T02:28:37.903Z,1013.23
2017-04-07T02:29:48.420Z,1013.24
2017-04-07T02:30:58.685Z,1013.23
2017-04-07T02:32:08.960Z,1013.18
2017-04-07T02:33:18.940Z,1013.18
2017-04-07T02:34:29.213Z,1013.12
2017-04-07T02:35:39.472Z,1013.19
2017-04-07T02:36:48.823Z,1013.16
2017-04-07T02:37:58.777Z,1013.14
2017-04-07T02:39:09.073Z,1013.11
2017-04-07T02:40:19.029Z,1013.16
2017-04-07T02:41:29.551Z,1013.16
2017-04-07T02:42:39.514Z,1013.18
2017-04-07T02:43:49.786Z,1013.14
2017-04-07T02:45:00.062Z,1013.25
2017-04-07T02:46:10.026Z,1013.2
2017-04-07T02:47:20.749Z,1013.2
2017-04-07T02:48:31.014Z,1013.23
2017-04-07T02:49:41.281Z,1013.28
2017-04-07T02:50:51.555Z,1013.25
2017-04-07T02:52:01.518Z,1013.22
2017-04-07T02:53:11.726Z,1013.25
2017-04-07T02:54:21.374Z,1013.22
2017-04-07T02:55:31.649Z,1013.19
2017-04-07T02:56:41.645Z,1013.16
2017-04-07T02:57:51.924Z,1013.13
2017-04-07T02:59:02.185Z,1013.15
2017-04-07T03:00:12.145Z,1013.19
2017-04-07T03:01:22.100Z,1013.15
2017-04-07T03:02:32.381Z,1013.13
2017-04-07T03:03:42.034Z,1013.17
2017-04-07T03:04:52.291Z,1013.1
2017-04-07T03:06:02.559Z,1013.11
2017-04-07T03:07:12.828Z,1013.05
2017-04-07T03:08:23.096Z,1013.08
2017-04-07T03:09:33.368Z,1013.09
2017-04-07T03:10:43.884Z,1013.04
2017-04-07T03:11:53.532Z,1013.05
2017-04-07T03:13:03.498Z,1013.03
2017-04-07T03:14:13.456Z,1012.98
2017-04-07T03:15:23.420Z,1013.03
2017-04-07T03:16:33.635Z,1012.99
2017-04-07T03:17:43.902Z,1012.98
2017-04-07T03:18:54.181Z,1012.95
2017-04-07T03:20:04.166Z,1012.93
2017-04-07T03:21:14.128Z,1012.97
2017-04-07T03:22:24.699Z,1012.91
2017-04-07T03:23:34.981Z,1012.9
2017-04-07T03:24:45.251Z,1012.88
2017-04-07T03:25:55.533Z,1012.81
2017-04-07T03:27:05.808Z,1012.79
2017-04-07T03:28:16.385Z,1012.74
2017-04-07T03:29:26.342Z,1012.77
2017-04-07T03:30:36.623Z,1012.72
2017-04-07T03:31:46.589Z,1012.7
2017-04-07T03:32:56.858Z,1012.67
2017-04-07T03:34:07.390Z,1012.68
2017-04-07T03:35:17.350Z,1012.66
2017-04-07T03:36:27.632Z,1012.67
2017-04-07T03:37:37.585Z,1012.7
2017-04-07T03:38:47.859Z,1012.66
2017-04-07T03:39:58.426Z,1012.62
2017-04-07T03:41:08.706Z,1012.6
2017-04-07T03:42:18.976Z,1012.6
2017-04-07T03:43:28.949Z,1012.58
2017-04-07T03:44:39.241Z,1012.5
2017-04-07T03:45:49.463Z,1012.54
2017-04-07T03:46:59.735Z,1012.52
2017-04-07T03:48:09.379Z,1012.48
2017-04-07T03:49:19.656Z,1012.46
2017-04-07T03:50:29.303Z,1012.44
2017-04-07T03:51:39.929Z,1012.51
2017-04-07T03:52:50.203Z,1012.44
2017-04-07T03:54:00.468Z,1012.42
2017-04-07T03:55:10.778Z,1012.44
2017-04-07T03:56:21.046Z,1012.42
2017-04-07T03:57:31.697Z,1012.44
2017-04-07T03:58:41.652Z,1012.38
2017-04-07T03:59:51.612Z,1012.31
2017-04-07T04:01:01.581Z,1012.27
2017-04-07T04:02:11.859Z,1012.23
2017-04-07T04:03:22.484Z,1012.21
2017-04-07T04:04:32.472Z,1012.25
2017-04-07T04:05:42.431Z,1012.26
2017-04-07T04:06:52.703Z,1012.32
2017-04-07T04:08:02.353Z,1012.35
2017-04-07T04:09:12.662Z,1012.32
2017-04-07T04:10:22.623Z,1012.38
2017-04-07T04:11:32.889Z,1012.37
2017-04-07T04:12:43.161Z,1012.32
2017-04-07T04:13:53.437Z,1012.35
2017-04-07T04:15:04.134Z,1012.38
2017-04-07T04:16:14.105Z,1012.41
2017-04-07T04:17:24.372Z,1012.37
2017-04-07T04:18:34.330Z,1012.41
2017-04-07T04:19:44.594Z,1012.4
2017-04-07T04:20:55.209Z,1012.44
2017-04-07T04:22:05.481Z,1012.38
2017-04-07T04:23:15.445Z,1012.41
2017-04-07T04:24:25.708Z,1012.4
2017-04-07T04:25:35.979Z,1012.43
2017-04-07T04:26:46.595Z,1012.41
2017-04-07T04:27:56.563Z,1012.37
2017-04-07T04:29:06.840Z,1012.42
2017-04-07T04:30:16.802Z,1012.32
2017-04-07T04:31:27.077Z,1012.42
2017-04-07T04:32:37.389Z,1012.39
2017-04-07T04:33:47.662Z,1012.37
2017-04-07T04:34:57.929Z,1012.35
2017-04-07T04:36:08.202Z,1012.37
2017-04-07T04:37:18.168Z,1012.34
2017-04-07T04:38:28.743Z,1012.41
2017-04-07T04:39:39.016Z,1012.43
2017-04-07T04:40:48.984Z,1012.37
2017-04-07T04:41:58.961Z,1012.37
2017-04-07T04:43:09.244Z,1012.4
2017-04-07T04:44:19.193Z,1012.4
2017-04-07T04:45:29.463Z,1012.42
2017-04-07T04:46:39.440Z,1012.46
2017-04-07T04:47:49.710Z,1012.46
2017-04-07T04:48:59.670Z,1012.43
2017-04-07T04:50:10.185Z,1012.44
2017-04-07T04:51:20.164Z,1012.46
2017-04-07T04:52:30.113Z,1012.49
2017-04-07T04:53:40.390Z,1012.46
2017-04-07T04:54:50.391Z,1012.46
2017-04-07T04:56:00.913Z,1012.45
2017-04-07T04:57:10.906Z,1012.5
2017-04-07T04:58:21.188Z,1012.5
2017-04-07T04:59:31.457Z,1012.46
2017-04-07T05:00:41.431Z,1012.47
2017-04-07T05:01:51.651Z,1012.44
2017-04-07T05:03:01.921Z,1012.44
2017-04-07T05:04:12.188Z,1012.42
2017-04-07T05:05:22.452Z,1012.42
2017-04-07T05:06:32.105Z,1012.32
2017-04-07T05:07:42.315Z,1012.31
2017-04-07T05:08:52.587Z,1012.32
2017-04-07T05:10:02.860Z,1012.36
2017-04-07T05:11:13.146Z,1012.3
2017-04-07T05:12:23.116Z,1012.25
2017-04-07T05:13:33.375Z,1012.3
2017-04-07T05:14:43.582Z,1012.25
2017-04-07T05:15:53.237Z,1012.27
2017-04-07T05:17:03.536Z,1012.26
2017-04-07T05:18:13.522Z,1012.22
2017-04-07T05:19:24.058Z,1012.27
2017-04-07T05:20:34.040Z,1012.21
2017-04-07T05:21:43.704Z,1012.22
2017-04-07T05:22:53.716Z,1012.27
2017-04-07T05:24:04.000Z,1012.22
2017-04-07T05:25:14.283Z,1012.27
2017-04-07T05:26:24.559Z,1012.28
2017-04-07T05:27:34.835Z,1012.28
2017-04-07T05:28:44.787Z,1012.3
2017-04-07T05:29:55.128Z,1012.23
2017-04-07T05:31:05.364Z,1012.21
2017-04-07T05:32:15.644Z,1012.22
2017-04-07T05:33:25.305Z,1012.32
2017-04-07T05:34:35.588Z,1012.24
2017-04-07T05:35:45.865Z,1012.35
2017-04-07T05:36:56.375Z,1012.27
2017-04-07T05:38:06.654Z,1012.32
2017-04-07T05:39:16.932Z,1012.4
2017-04-07T05:40:26.897Z,1012.41
2017-04-07T05:41:37.170Z,1012.4
2017-04-07T05:42:47.369Z,1012.4
2017-04-07T05:43:57.343Z,1012.39
2017-04-07T05:45:07.607Z,1012.41
2017-04-07T05:46:17.881Z,1012.37
2017-04-07T05:47:27.838Z,1012.4
2017-04-07T05:48:38.409Z,1012.46
2017-04-07T05:49:48.682Z,1012.47
2017-04-07T05:50:58.662Z,1012.52
2017-04-07T05:52:08.635Z,1012.44
2017-04-07T05:53:18.921Z,1012.48
2017-04-07T05:54:29.130Z,1012.44
2017-04-07T05:55:39.084Z,1012.47
2017-04-07T05:56:49.043Z,1012.44
2017-04-07T05:57:59.049Z,1012.48
2017-04-07T05:59:09.334Z,1012.46
2017-04-07T06:00:19.860Z,1012.45
2017-04-07T06:01:29.832Z,1012.52
2017-04-07T06:02:40.116Z,1012.51
2017-04-07T06:03:50.393Z,1012.5
2017-04-07T06:05:00.668Z,1012.51
2017-04-07T06:06:11.185Z,1012.56
2017-04-07T06:07:21.467Z,1012.62
2017-04-07T06:08:31.733Z,1012.61
2017-04-07T06:09:42.041Z,1012.57
2017-04-07T06:10:52.014Z,1012.56
2017-04-07T06:12:02.626Z,1012.62
2017-04-07T06:13:12.901Z,1012.64
2017-04-07T06:14:23.194Z,1012.56
2017-04-07T06:15:33.468Z,1012.55
2017-04-07T06:16:43.741Z,1012.65
2017-04-07T06:17:54.323Z,1012.6
2017-04-07T06:19:04.621Z,1012.55
2017-04-07T06:20:14.920Z,1012.62
2017-04-07T06:21:24.904Z,1012.57
2017-04-07T06:22:34.875Z,1012.63
2017-04-07T06:23:45.094Z,1012.58
2017-04-07T06:24:55.385Z,1012.5
2017-04-07T06:26:05.680Z,1012.63
2017-04-07T06:27:15.963Z,1012.61
2017-04-07T06:28:26.240Z,1012.6
2017-04-07T06:29:36.791Z,1012.58
2017-04-07T06:30:47.067Z,1012.53
2017-04-07T06:31:57.329Z,1012.59
2017-04-07T06:33:07.288Z,1012.59
2017-04-07T06:34:17.570Z,1012.64
2017-04-07T06:35:27.785Z,1012.66
2017-04-07T06:36:38.053Z,1012.63
2017-04-07T06:37:48.331Z,1012.65
2017-04-07T06:38:58.611Z,1012.64
2017-04-07T06:40:08.592Z,1012.71
2017-04-07T06:41:18.828Z,1012.65
2017-04-07T06:42:28.798Z,1012.66
2017-04-07T06:43:38.766Z,1012.66
2017-04-07T06:44:49.082Z,1012.67
2017-04-07T06:45:59.364Z,1012.69
2017-04-07T06:47:09.882Z,1012.68
2017-04-07T06:48:19.526Z,1012.67
2017-04-07T06:49:29.804Z,1012.65
2017-04-07T06:50:40.092Z,1012.62
2017-04-07T06:51:50.368Z,1012.66
2017-04-07T06:53:00.595Z,1012.68
2017-04-07T06:54:10.585Z,1012.65
2017-04-07T06:55:20.859Z,1012.68
2017-04-07T06:56:30.840Z,1012.66
2017-04-07T06:57:41.103Z,1012.72
2017-04-07T06:58:51.455Z,1012.68
2017-04-07T07:00:01.749Z,1012.64
2017-04-07T07:01:11.751Z,1012.65
2017-04-07T07:02:21.737Z,1012.7
2017-04-07T07:03:32.005Z,1012.65
2017-04-07T07:04:42.221Z,1012.66
2017-04-07T07:05:52.497Z,1012.71
2017-04-07T07:07:02.806Z,1012.68
2017-04-07T07:08:12.793Z,1012.7
2017-04-07T07:09:23.104Z,1012.61
2017-04-07T07:10:33.624Z,1012.61
2017-04-07T07:11:43.897Z,1012.64
2017-04-07T07:12:53.865Z,1012.6
2017-04-07T07:14:04.157Z,1012.61
2017-04-07T07:15:14.114Z,1012.63
2017-04-07T07:16:24.633Z,1012.59
2017-04-07T07:17:34.901Z,1012.56
2017-04-07T07:18:45.177Z,1012.46
2017-04-07T07:19:54.521Z,1012.52
2017-04-07T07:21:04.790Z,1012.51
2017-04-07T07:22:15.037Z,1012.49
2017-04-07T07:23:25.319Z,1012.51
2017-04-07T07:24:35.603Z,1012.52
2017-04-07T07:25:45.870Z,1012.5
2017-04-07T07:26:55.832Z,1012.48
2017-04-07T07:28:05.736Z,1012.46
2017-04-07T07:29:15.720Z,1012.51
2017-04-07T07:30:26.013Z,1012.47
2017-04-07T07:31:35.684Z,1012.51
2017-04-07T07:32:45.979Z,1012.51
2017-04-07T07:33:56.520Z,1012.51
2017-04-07T07:35:06.787Z,1012.52
2017-04-07T07:36:17.086Z,1012.53
2017-04-07T07:37:27.050Z,1012.49
2017-04-07T07:38:37.337Z,1012.5
2017-04-07T07:39:47.874Z,1012.52
2017-04-07T07:40:58.158Z,1012.55
2017-04-07T07:42:08.494Z,1012.49
2017-04-07T07:43:18.810Z,1012.56
2017-04-07T07:44:29.104Z,1012.57
2017-04-07T07:45:39.215Z,1012.52
2017-04-07T07:46:49.515Z,1012.51
2017-04-07T07:47:59.473Z,1012.48
2017-04-07T07:49:09.771Z,1012.52
2017-04-07T07:50:20.036Z,1012.46
2017-04-07T07:51:30.261Z,1012.46
2017-04-07T07:52:40.225Z,1012.5
2017-04-07T07:53:50.193Z,1012.51
2017-04-07T07:55:00.482Z,1012.5
2017-04-07T07:56:10.802Z,1012.49
2017-04-07T07:57:21.377Z,1012.54
2017-04-07T07:58:31.664Z,1012.49
2017-04-07T07:59:41.639Z,1012.57
2017-04-07T08:00:51.932Z,1012.49
2017-04-07T08:02:01.913Z,1012.45
2017-04-07T08:03:12.145Z,1012.53
2017-04-07T08:04:21.831Z,1012.47
2017-04-07T08:05:31.788Z,1012.52
2017-04-07T08:06:42.096Z,1012.52
2017-04-07T08:07:52.379Z,1012.54
2017-04-07T08:09:02.653Z,1012.52
2017-04-07T08:10:12.988Z,1012.54
2017-04-07T08:11:23.275Z,1012.48
2017-04-07T08:12:33.551Z,1012.57
2017-04-07T08:13:43.823Z,1012.55
2017-04-07T08:14:54.412Z,1012.55
2017-04-07T08:16:04.379Z,1012.6
2017-04-07T08:17:14.045Z,1012.62
2017-04-07T08:18:24.322Z,1012.61
2017-04-07T08:19:34.298Z,1012.68
2017-04-07T08:20:44.540Z,1012.71
2017-04-07T08:21:54.839Z,1012.7
2017-04-07T08:23:05.191Z,1012.69
2017-04-07T08:24:15.469Z,1012.72
2017-04-07T08:25:25.444Z,1012.75
2017-04-07T08:26:35.480Z,1012.73
2017-04-07T08:27:45.501Z,1012.77
2017-04-07T08:28:55.848Z,1012.79
2017-04-07T08:30:06.206Z,1012.76
2017-04-07T08:31:16.184Z,1012.83
2017-04-07T08:32:26.153Z,1012.77
2017-04-07T08:33:36.449Z,1012.81
2017-04-07T08:34:46.731Z,1012.84
2017-04-07T08:35:57.062Z,1012.9
2017-04-07T08:37:07.035Z,1012.9
2017-04-07T08:38:17.334Z,1012.9
2017-04-07T08:39:27.663Z,1012.9
2017-04-07T08:40:38.002Z,1012.95
2017-04-07T08:41:47.985Z,1012.97
2017-04-07T08:42:58.463Z,1012.91
2017-04-07T08:44:09.068Z,1012.91
2017-04-07T08:45:19.051Z,1012.89
2017-04-07T08:46:29.032Z,1012.93
2017-04-07T08:47:39.312Z,1012.93
2017-04-07T08:48:49.654Z,1012.91
2017-04-07T08:50:00.217Z,1012.9
2017-04-07T08:51:10.214Z,1012.86
2017-04-07T08:52:20.758Z,1012.87
2017-04-07T08:53:31.135Z,1012.91
2017-04-07T08:54:41.418Z,1012.87
2017-04-07T08:55:51.366Z,1012.87
2017-04-07T08:57:01.678Z,1012.92
2017-04-07T08:58:11.664Z,1012.93
2017-04-07T08:59:21.950Z,1012.89
2017-04-07T09:00:32.251Z,1012.92
2017-04-07T09:01:42.485Z,1012.87
2017-04-07T09:02:52.760Z,1012.89
2017-04-07T09:04:03.074Z,1012.93
2017-04-07T09:05:13.042Z,1012.93
2017-04-07T09:06:23.323Z,1012.9
2017-04-07T09:07:33.856Z,1012.9
2017-04-07T09:08:44.145Z,1012.88
2017-04-07T09:09:54.446Z,1012.92
2017-04-07T09:11:04.432Z,1012.96
2017-04-07T09:12:14.714Z,1012.92
2017-04-07T09:13:24.950Z,1012.95
2017-04-07T09:14:35.336Z,1012.94
2017-04-07T09:15:45.618Z,1012.95
2017-04-07T09:16:55.908Z,1012.99
2017-04-07T09:18:05.884Z,1013.01
2017-04-07T09:19:16.435Z,1012.97
2017-04-07T09:20:26.722Z,1012.97
2017-04-07T09:21:36.694Z,1012.97
2017-04-07T09:22:46.984Z,1013.01
2017-04-07T09:23:57.270Z,1012.99
2017-04-07T09:25:07.883Z,1012.96
2017-04-07T09:26:17.855Z,1012.94
2017-04-07T09:27:27.821Z,1012.96
2017-04-07T09:28:38.105Z,1012.95
2017-04-07T09:29:48.387Z,1013
2017-04-07T09:30:58.925Z,1012.96
2017-04-07T09:32:08.901Z,1012.9
2017-04-07T09:33:18.878Z,1012.93
2017-04-07T09:34:28.845Z,1012.94
2017-04-07T09:35:39.140Z,1012.87
2017-04-07T09:36:49.097Z,1012.94
2017-04-07T09:37:59.087Z,1012.92
2017-04-07T09:39:09.368Z,1012.91
2017-04-07T09:40:19.357Z,1012.88
2017-04-07T09:41:29.316Z,1012.85
2017-04-07T09:42:39.901Z,1012.82
2017-04-07T09:43:49.878Z,1012.83
2017-04-07T09:44:59.853Z,1012.83
2017-04-07T09:46:10.148Z,1012.86
2017-04-07T09:47:20.145Z,1012.87
2017-04-07T09:48:30.405Z,1012.83
2017-04-07T09:49:40.694Z,1012.88
2017-04-07T09:50:50.664Z,1012.87
2017-04-07T09:52:00.876Z,1012.87
2017-04-07T09:53:11.167Z,1012.87
2017-04-07T09:54:21.760Z,1012.87
2017-04-07T09:55:32.047Z,1012.89
2017-04-07T09:56:42.332Z,1012.83
2017-04-07T09:57:52.644Z,1012.92
2017-04-07T09:59:02.930Z,1012.86
2017-04-07T10:00:13.454Z,1012.91
2017-04-07T10:01:23.456Z,1012.86
2017-04-07T10:02:33.748Z,1012.83
2017-04-07T10:03:44.026Z,1012.8
2017-04-07T10:04:54.010Z,1012.87
2017-04-07T10:06:04.290Z,1012.84
2017-04-07T10:07:13.972Z,1012.89
2017-04-07T10:08:24.249Z,1012.89
2017-04-07T10:09:34.543Z,1012.83
2017-04-07T10:10:43.893Z,1012.88
2017-04-07T10:11:54.481Z,1012.85
2017-04-07T10:13:04.765Z,1012.88
2017-04-07T10:14:14.745Z,1012.89
2017-04-07T10:15:25.044Z,1012.89
2017-04-07T10:16:34.996Z,1012.89
2017-04-07T10:17:45.546Z,1012.86
2017-04-07T10:18:55.822Z,1012.88
2017-04-07T10:20:05.794Z,1012.89
2017-04-07T10:21:16.097Z,1012.88
2017-04-07T10:22:26.382Z,1012.86
2017-04-07T10:23:36.597Z,1012.92
2017-04-07T10:24:46.901Z,1012.88
2017-04-07T10:25:57.214Z,1012.93
2017-04-07T10:27:07.503Z,1012.91
2017-04-07T10:28:17.796Z,1012.91
2017-04-07T10:29:28.022Z,1012.84
2017-04-07T10:30:38.323Z,1012.88
2017-04-07T10:31:47.981Z,1012.83
2017-04-07T10:32:58.271Z,1012.87
2017-04-07T10:34:08.593Z,1012.87
2017-04-07T10:35:18.867Z,1012.82
2017-04-07T10:36:29.390Z,1012.83
2017-04-07T10:37:39.760Z,1012.82
2017-04-07T10:38:50.054Z,1012.85
2017-04-07T10:40:00.345Z,1012.83
2017-04-07T10:41:10.900Z,1012.81
2017-04-07T10:42:21.188Z,1012.88
2017-04-07T10:43:31.179Z,1012.8
2017-04-07T10:44:41.505Z,1012.86
2017-04-07T10:45:51.529Z,1012.82
2017-04-07T10:47:02.059Z,1012.82
2017-04-07T10:48:12.359Z,1012.81
2017-04-07T10:49:22.632Z,1012.86
2017-04-07T10:50:32.924Z,1012.85
2017-04-07T10:51:42.899Z,1012.81
2017-04-07T10:52:53.434Z,1012.82
2017-04-07T10:54:03.734Z,1012.82
2017-04-07T10:55:14.004Z,1012.89
2017-04-07T10:56:24.284Z,1012.8
2017-04-07T10:57:34.252Z,1012.73
2017-04-07T10:58:44.789Z,1012.8
2017-04-07T10:59:55.059Z,1012.79
2017-04-07T11:01:04.728Z,1012.84
2017-04-07T11:02:14.696Z,1012.86
2017-04-07T11:03:24.973Z,1012.89
2017-04-07T11:04:35.200Z,1012.81
2017-04-07T11:05:45.470Z,1012.84
2017-04-07T11:06:55.131Z,1012.9
2017-04-07T11:08:05.407Z,1012.83
2017-04-07T11:09:15.692Z,1012.79
2017-04-07T11:10:25.954Z,1012.82
2017-04-07T11:11:35.925Z,1012.79
2017-04-07T11:12:45.925Z,1012.78
2017-04-07T11:13:56.211Z,1012.82
2017-04-07T11:15:06.512Z,1012.81
2017-04-07T11:16:16.817Z,1012.86
2017-04-07T11:17:26.787Z,1012.78
2017-04-07T11:18:37.056Z,1012.82
2017-04-07T11:19:47.340Z,1012.76
2017-04-07T11:20:57.302Z,1012.76
2017-04-07T11:22:07.855Z,1012.73
2017-04-07T11:23:18.171Z,1012.74
2017-04-07T11:24:28.455Z,1012.74
2017-04-07T11:25:38.737Z,1012.8
2017-04-07T11:26:48.424Z,1012.79
2017-04-07T11:27:58.990Z,1012.81
2017-04-07T11:29:09.298Z,1012.7
2017-04-07T11:30:19.674Z,1012.73
2017-04-07T11:31:29.641Z,1012.78
2017-04-07T11:32:39.321Z,1012.77
2017-04-07T11:33:49.869Z,1012.8
2017-04-07T11:35:00.153Z,1012.82
2017-04-07T11:36:10.449Z,1012.84
2017-04-07T11:37:20.449Z,1012.8
2017-04-07T11:38:30.732Z,1012.78
2017-04-07T11:39:41.270Z,1012.81
2017-04-07T11:40:51.547Z,1012.79
2017-04-07T11:42:01.821Z,1012.75
2017-04-07T11:43:11.624Z,1012.76
2017-04-07T11:44:21.587Z,1012.76
2017-04-07T11:45:32.051Z,1012.78
2017-04-07T11:46:41.712Z,1012.76
2017-04-07T11:47:51.675Z,1012.74
2017-04-07T11:49:01.990Z,1012.75
2017-04-07T11:50:12.293Z,1012.73
2017-04-07T11:51:22.848Z,1012.75
2017-04-07T11:52:33.152Z,1012.75
2017-04-07T11:53:43.140Z,1012.77
2017-04-07T11:54:53.435Z,1012.77
2017-04-07T11:56:03.110Z,1012.74
2017-04-07T11:57:13.660Z,1012.78
2017-04-07T11:58:23.313Z,1012.77
2017-04-07T11:59:33.291Z,1012.76
2017-04-07T12:00:43.584Z,1012.76
2017-04-07T12:01:53.552Z,1012.84
2017-04-07T12:03:03.784Z,1012.81
2017-04-07T12:04:14.082Z,1012.77
2017-04-07T12:05:24.376Z,1012.78
2017-04-07T12:06:34.687Z,1012.79
2017-04-07T12:07:44.709Z,1012.77
2017-04-07T12:08:55.274Z,1012.77
2017-04-07T12:10:05.566Z,1012.76
2017-04-07T12:11:15.862Z,1012.77
2017-04-07T12:12:26.163Z,1012.75
2017-04-07T12:13:36.437Z,1012.69
2017-04-07T12:14:46.051Z,1012.71
2017-04-07T12:15:56.344Z,1012.71
2017-04-07T12:17:06.642Z,1012.72
2017-04-07T12:18:16.938Z,1012.65
2017-04-07T12:19:26.909Z,1012.71
2017-04-07T12:20:37.169Z,1012.74
2017-04-07T12:21:47.458Z,1012.7
2017-04-07T12:22:57.427Z,1012.73
2017-04-07T12:24:07.721Z,1012.7
2017-04-07T12:25:17.696Z,1012.74
2017-04-07T12:26:27.607Z,1012.72
2017-04-07T12:27:37.887Z,1012.75
2017-04-07T12:28:48.193Z,1012.74
2017-04-07T12:29:58.486Z,1012.67
2017-04-07T12:31:08.455Z,1012.65
2017-04-07T12:32:19.011Z,1012.65
2017-04-07T12:33:29.304Z,1012.66
2017-04-07T12:34:39.338Z,1012.61
2017-04-07T12:35:50.118Z,1012.6
2017-04-07T12:37:00.418Z,1012.57
2017-04-07T12:38:11.001Z,1012.59
2017-04-07T12:39:21.311Z,1012.57
2017-04-07T12:40:31.612Z,1012.6
2017-04-07T12:41:41.899Z,1012.61
2017-04-07T12:42:52.188Z,1012.62
2017-04-07T12:44:02.417Z,1012.63
2017-04-07T12:45:12.406Z,1012.67
2017-04-07T12:46:22.397Z,1012.7
2017-04-07T12:47:32.705Z,1012.65
2017-04-07T12:48:42.988Z,1012.68
2017-04-07T12:49:53.509Z,1012.71
2017-04-07T12:51:03.469Z,1012.69
2017-04-07T12:52:13.468Z,1012.69
2017-04-07T12:53:23.763Z,1012.67
2017-04-07T12:54:34.043Z,1012.65
2017-04-07T12:55:44.318Z,1012.59
2017-04-07T12:56:54.603Z,1012.61
2017-04-07T12:58:04.269Z,1012.6
2017-04-07T12:59:14.554Z,1012.59
2017-04-07T13:00:24.544Z,1012.64
2017-04-07T13:01:34.760Z,1012.6
2017-04-07T13:02:45.060Z,1012.61
2017-04-07T13:03:55.353Z,1012.62
2017-04-07T13:05:05.629Z,1012.6
2017-04-07T13:06:15.911Z,1012.63
2017-04-07T13:07:26.445Z,1012.6
2017-04-07T13:08:36.425Z,1012.57
2017-04-07T13:09:46.088Z,1012.63
2017-04-07T13:10:56.377Z,1012.57
2017-04-07T13:12:06.367Z,1012.57
2017-04-07T13:13:16.910Z,1012.57
2017-04-07T13:14:26.887Z,1012.62
2017-04-07T13:15:37.176Z,1012.63
2017-04-07T13:16:46.537Z,1012.61
2017-04-07T13:17:56.197Z,1012.61
2017-04-07T13:19:06.779Z,1012.56
2017-04-07T13:20:17.077Z,1012.54
2017-04-07T13:21:26.741Z,1012.54
2017-04-07T13:22:37.033Z,1012.56
2017-04-07T13:23:46.682Z,1012.55
2017-04-07T13:24:57.213Z,1012.57
2017-04-07T13:26:07.199Z,1012.52
2017-04-07T13:27:17.511Z,1012.54
2017-04-07T13:28:27.491Z,1012.52
2017-04-07T13:29:37.465Z,1012.53
2017-04-07T13:30:47.998Z,1012.53
2017-04-07T13:31:58.282Z,1012.52
2017-04-07T13:33:08.582Z,1012.49
2017-04-07T13:34:18.867Z,1012.57
2017-04-07T13:35:29.165Z,1012.52
2017-04-07T13:36:39.093Z,1012.53
2017-04-07T13:37:49.397Z,1012.49
2017-04-07T13:38:59.672Z,1012.46
2017-04-07T13:40:09.968Z,1012.43
2017-04-07T13:41:20.259Z,1012.42
2017-04-07T13:42:30.837Z,1012.41
2017-04-07T13:43:41.140Z,1012.37
2017-04-07T13:44:51.437Z,1012.36
2017-04-07T13:46:01.428Z,1012.35
2017-04-07T13:47:11.746Z,1012.31
2017-04-07T13:48:22.330Z,1012.34
2017-04-07T13:49:32.326Z,1012.33
2017-04-07T13:50:42.313Z,1012.28
2017-04-07T13:51:52.628Z,1012.25
2017-04-07T13:53:02.926Z,1012.26
2017-04-07T13:54:13.217Z,1012.25
2017-04-07T13:55:23.215Z,1012.22
2017-04-07T13:56:33.539Z,1012.25
2017-04-07T13:57:43.810Z,1012.25
2017-04-07T13:58:53.798Z,1012.24
2017-04-07T14:00:04.053Z,1012.24
2017-04-07T14:01:14.407Z,1012.22
2017-04-07T14:02:24.703Z,1012.21
2017-04-07T14:03:34.986Z,1012.22
2017-04-07T14:04:44.967Z,1012.19
2017-04-07T14:05:55.506Z,1012.17
2017-04-07T14:07:05.841Z,1012.1
2017-04-07T14:08:16.136Z,1012.12
2017-04-07T14:09:26.435Z,1012.1
2017-04-07T14:10:36.725Z,1012.12
2017-04-07T14:11:47.266Z,1012.03